Time;durP1;ratioP1;P1;durP2;ratioP2;P2;SDS_P1;SDS_P2;PMS_P1;PMS_P2;Temp;Humidity;BMP_temperature;BMP_pressure;BME280_temperature;BME280_humidity;BME280_pressure;Samples;Min_cycle;Max_cycle;Signal;HPM_P1;HPM_P2
2023/08/26 00:01:15;;;;;;;11.50;10.40;;;19.40;99.90;;;;;;4981249;28;20506;-67
2023/08/26 00:03:41;;;;;;;10.60;9.70;;;19.30;99.90;;;;;;4974787;28;20179;-67
2023/08/26 00:06:06;;;;;;;11.50;10.60;;;19.30;99.90;;;;;;4974643;28;20574;-67
2023/08/26 00:08:32;;;;;;;11.47;10.10;;;19.30;99.90;;;;;;4971474;28;20208;-68
2023/08/26 00:10:58;;;;;;;11.27;10.27;;;19.20;99.90;;;;;;4973998;28;20644;-67
2023/08/26 00:13:24;;;;;;;11.60;10.60;;;19.20;99.90;;;;;;4972263;28;20255;-65
2023/08/26 00:15:49;;;;;;;12.07;10.83;;;19.20;99.90;;;;;;4972594;28;20984;-67
2023/08/26 00:18:15;;;;;;;11.97;10.87;;;19.10;99.90;;;;;;4971368;28;20226;-66
2023/08/26 00:20:40;;;;;;;11.63;10.63;;;19.10;99.90;;;;;;4992076;28;20179;-66
2023/08/26 00:23:06;;;;;;;17.27;11.13;;;19.10;99.90;;;;;;4978395;28;20191;-67
2023/08/26 00:25:32;;;;;;;14.20;12.67;;;19.10;99.90;;;;;;4972670;28;20743;-67
2023/08/26 00:27:57;;;;;;;14.43;10.70;;;19.00;99.90;;;;;;4971923;28;20279;-66
2023/08/26 00:30:24;;;;;;;12.20;11.10;;;19.00;99.90;;;;;;4972048;28;20900;-67
2023/08/26 00:32:50;;;;;;;10.97;10.07;;;19.00;99.90;;;;;;4968508;28;20179;-66
2023/08/26 00:35:16;;;;;;;10.90;9.93;;;19.00;99.90;;;;;;4975017;28;20828;-65
2023/08/26 00:37:42;;;;;;;12.83;9.97;;;19.00;99.90;;;;;;4971041;28;20439;-67
2023/08/26 00:40:08;;;;;;;11.67;10.67;;;19.00;99.90;;;;;;4973464;28;20184;-67
2023/08/26 00:42:37;;;;;;;11.77;10.77;;;18.90;99.90;;;;;;4971461;28;20447;-67
2023/08/26 00:45:06;;;;;;;13.13;10.10;;;18.90;99.90;;;;;;4981078;28;20469;-67
2023/08/26 00:47:32;;;;;;;14.00;9.10;;;18.90;99.90;;;;;;4979436;28;20459;-67
2023/08/26 00:49:57;;;;;;;9.77;8.77;;;18.90;99.90;;;;;;4976096;28;20437;-66
2023/08/26 00:52:23;;;;;;;8.57;7.80;;;18.90;99.90;;;;;;4973348;28;20211;-67
2023/08/26 00:54:49;;;;;;;8.40;7.70;;;18.90;99.90;;;;;;4973775;28;20732;-67
2023/08/26 00:57:14;;;;;;;7.93;7.00;;;18.90;99.90;;;;;;4983915;28;20176;-66
2023/08/26 00:59:40;;;;;;;8.63;7.73;;;18.90;99.90;;;;;;4980960;28;20215;-66
2023/08/26 01:02:05;;;;;;;8.80;7.90;;;18.90;99.90;;;;;;4985827;28;20167;-67
2023/08/26 01:04:31;;;;;;;8.17;7.37;;;18.90;99.90;;;;;;4986624;28;20254;-67
2023/08/26 01:06:56;;;;;;;9.10;7.97;;;18.90;99.90;;;;;;4971311;28;20216;-67
2023/08/26 01:09:23;;;;;;;9.33;7.33;;;18.90;99.90;;;;;;4970780;28;20184;-67
2023/08/26 01:12:28;;;;;;;8.93;8.13;;;18.90;99.90;;;;;;4981002;28;20173;-67
2023/08/26 01:15:05;;;;;;;7.77;7.17;;;18.90;99.90;;;;;;4973030;28;20435;-67
2023/08/26 01:17:32;;;;;;;10.10;7.83;;;18.90;99.90;;;;;;4971345;28;20808;-67
2023/08/26 01:19:59;;;;;;;7.80;7.00;;;18.90;99.90;;;;;;4970820;28;21002;-67
2023/08/26 01:22:28;;;;;;;12.47;8.27;;;18.90;99.90;;;;;;4972894;28;20490;-66
2023/08/26 01:24:54;;;;;;;12.70;6.97;;;18.90;99.90;;;;;;4971636;28;20439;-65
2023/08/26 01:27:20;;;;;;;12.67;8.20;;;18.80;99.90;;;;;;4973208;28;20475;-66
2023/08/26 01:29:46;;;;;;;7.70;6.90;;;18.70;99.90;;;;;;4974309;28;20492;-64
2023/08/26 01:32:33;;;;;;;7.70;7.07;;;18.70;99.90;;;;;;4980122;28;20258;-66
2023/08/26 01:35:03;;;;;;;8.27;7.57;;;18.70;99.90;;;;;;4981756;28;20226;-65
2023/08/26 01:37:29;;;;;;;6.70;6.10;;;18.70;99.90;;;;;;4976367;28;20439;-66
2023/08/26 01:39:57;;;;;;;8.23;6.90;;;18.80;99.90;;;;;;4981074;28;20434;-66
2023/08/26 01:42:24;;;;;;;7.60;6.87;;;18.80;99.90;;;;;;4969906;28;20522;-66
2023/08/26 01:44:50;;;;;;;8.10;6.63;;;18.90;99.90;;;;;;4977186;28;20439;-66
2023/08/26 01:47:16;;;;;;;6.50;6.00;;;18.90;99.90;;;;;;4971038;28;20518;-66
2023/08/26 01:49:43;;;;;;;8.47;6.13;;;18.80;99.90;;;;;;4972017;28;21161;-66
2023/08/26 01:52:09;;;;;;;8.43;5.90;;;18.90;99.90;;;;;;4977393;28;20238;-66
2023/08/26 01:54:35;;;;;;;7.20;6.20;;;18.90;99.90;;;;;;4986296;28;20940;-66
2023/08/26 01:57:01;;;;;;;8.37;6.40;;;18.90;99.90;;;;;;4980479;28;20455;-67
2023/08/26 01:59:26;;;;;;;7.03;6.40;;;18.80;99.90;;;;;;4974576;28;20224;-66
2023/08/26 02:01:52;;;;;;;7.60;7.00;;;18.90;99.90;;;;;;4978701;28;20200;-66
2023/08/26 02:04:17;;;;;;;7.60;6.83;;;18.90;99.90;;;;;;4985618;28;20293;-66
2023/08/26 02:06:43;;;;;;;7.80;7.03;;;18.90;99.90;;;;;;4975487;28;20558;-65
2023/08/26 02:09:08;;;;;;;7.17;5.87;;;18.90;99.90;;;;;;4974262;28;20180;-65
2023/08/26 02:11:34;;;;;;;7.40;6.63;;;18.90;99.90;;;;;;4974415;28;20192;-66
2023/08/26 02:13:59;;;;;;;6.97;5.97;;;18.90;99.90;;;;;;4977334;28;20650;-66
2023/08/26 02:16:25;;;;;;;7.03;6.33;;;18.80;99.90;;;;;;4990856;28;20269;-65
2023/08/26 02:18:50;;;;;;;7.20;6.60;;;18.80;99.90;;;;;;4974459;28;20547;-65
2023/08/26 02:21:16;;;;;;;6.73;5.90;;;18.80;99.90;;;;;;4975897;28;20219;-65
2023/08/26 02:23:41;;;;;;;6.73;6.13;;;18.80;99.90;;;;;;4975128;28;20190;-66
2023/08/26 02:26:07;;;;;;;7.27;6.30;;;18.80;99.90;;;;;;4975858;28;20216;-66
2023/08/26 02:28:32;;;;;;;6.70;6.10;;;18.80;99.90;;;;;;4972407;28;20220;-66
2023/08/26 02:31:00;;;;;;;6.97;6.47;;;18.80;99.90;;;;;;4976394;28;20233;-65
2023/08/26 02:33:26;;;;;;;8.47;7.67;;;18.80;99.90;;;;;;4973506;28;20227;-66
2023/08/26 02:35:52;;;;;;;7.50;6.37;;;18.90;99.90;;;;;;4977484;28;20772;-66
2023/08/26 02:38:17;;;;;;;6.47;5.97;;;18.90;99.90;;;;;;4970856;28;20534;-66
2023/08/26 02:40:53;;;;;;;7.00;6.40;;;18.80;99.90;;;;;;4977436;28;20188;-66
2023/08/26 02:43:20;;;;;;;7.47;6.77;;;18.70;99.90;;;;;;4981635;28;20194;-66
2023/08/26 02:45:46;;;;;;;11.70;7.43;;;18.60;99.90;;;;;;4978731;28;21012;-66
2023/08/26 02:48:11;;;;;;;7.70;7.00;;;18.60;99.90;;;;;;4972552;28;20471;-65
2023/08/26 02:50:38;;;;;;;6.50;5.90;;;18.60;99.90;;;;;;4977526;28;20180;-66
2023/08/26 02:53:04;;;;;;;7.33;6.63;;;18.60;99.90;;;;;;4984185;28;20845;-66
2023/08/26 02:55:29;;;;;;;6.70;6.10;;;18.60;99.90;;;;;;4983238;28;20794;-66
2023/08/26 02:57:55;;;;;;;7.30;6.60;;;18.60;99.90;;;;;;4981728;28;20462;-66
2023/08/26 03:00:20;;;;;;;6.90;6.30;;;18.60;99.90;;;;;;4974526;28;20184;-66
2023/08/26 03:02:46;;;;;;;8.20;7.50;;;18.60;99.90;;;;;;4986607;28;20328;-66
2023/08/26 03:05:11;;;;;;;7.80;7.20;;;18.60;99.90;;;;;;4977930;28;20215;-66
2023/08/26 03:07:37;;;;;;;9.73;7.13;;;18.60;99.90;;;;;;4982125;28;20207;-66
2023/08/26 03:10:02;;;;;;;8.03;7.00;;;18.60;99.90;;;;;;4978063;28;20187;-66
2023/08/26 03:12:28;;;;;;;9.20;6.70;;;18.50;99.90;;;;;;4973069;28;20605;-66
2023/08/26 03:14:53;;;;;;;7.37;6.67;;;18.50;99.90;;;;;;4966748;28;20196;-65
2023/08/26 03:17:19;;;;;;;7.87;6.73;;;18.50;99.90;;;;;;4980204;28;20192;-66
2023/08/26 03:19:45;;;;;;;9.83;8.80;;;18.50;99.90;;;;;;4987386;28;20200;-66
2023/08/26 03:22:11;;;;;;;7.57;6.77;;;18.50;99.90;;;;;;4981801;28;20821;-66
2023/08/26 03:24:38;;;;;;;11.70;6.87;;;18.50;99.90;;;;;;4972453;28;20199;-66
2023/08/26 03:27:04;;;;;;;9.03;8.23;;;18.50;99.90;;;;;;4975115;28;20203;-67
2023/08/26 03:29:29;;;;;;;9.93;9.13;;;18.50;99.90;;;;;;4973231;28;20435;-66
2023/08/26 03:31:55;;;;;;;8.30;7.63;;;18.50;99.90;;;;;;4973297;28;20248;-67
2023/08/26 03:34:20;;;;;;;9.23;7.73;;;18.50;99.90;;;;;;4981693;28;20184;-66
2023/08/26 03:36:46;;;;;;;7.80;6.90;;;18.40;99.90;;;;;;4986804;28;20207;-66
2023/08/26 03:39:11;;;;;;;8.23;7.47;;;18.50;99.90;;;;;;4984201;28;20183;-67
2023/08/26 03:41:37;;;;;;;8.47;7.37;;;18.40;99.90;;;;;;4978019;28;20226;-66
2023/08/26 03:44:04;;;;;;;7.77;7.10;;;18.30;99.90;;;;;;4984561;28;20203;-66
2023/08/26 03:46:29;;;;;;;7.60;6.60;;;18.20;99.90;;;;;;4970320;28;20230;-66
2023/08/26 03:48:55;;;;;;;9.00;7.50;;;18.30;99.90;;;;;;4975487;28;20930;-66
2023/08/26 03:51:20;;;;;;;7.93;7.00;;;18.20;99.90;;;;;;4974239;28;20181;-66
2023/08/26 03:53:46;;;;;;;7.90;7.20;;;18.20;99.90;;;;;;4973220;28;20418;-67
2023/08/26 03:56:13;;;;;;;8.70;7.90;;;18.20;99.90;;;;;;4972231;28;20603;-66
2023/08/26 03:58:39;;;;;;;9.70;7.20;;;18.10;99.90;;;;;;4971723;28;20192;-67
2023/08/26 04:01:05;;;;;;;7.60;6.93;;;18.10;99.90;;;;;;4974253;28;20971;-66
2023/08/26 04:03:31;;;;;;;8.80;7.17;;;18.10;99.90;;;;;;4972226;28;20432;-67
2023/08/26 04:05:59;;;;;;;8.27;7.30;;;18.10;99.90;;;;;;4975339;28;20686;-67
2023/08/26 04:08:24;;;;;;;9.47;8.57;;;18.10;99.90;;;;;;4971461;28;20471;-66
2023/08/26 04:10:57;;;;;;;8.80;8.00;;;18.10;99.90;;;;;;4973940;28;20427;-67
2023/08/26 04:13:25;;;;;;;7.97;7.37;;;18.10;99.90;;;;;;4972527;28;20648;-67
2023/08/26 04:15:58;;;;;;;8.60;7.70;;;18.10;99.90;;;;;;4971007;28;20471;-67
2023/08/26 04:18:24;;;;;;;11.47;8.23;;;18.10;99.90;;;;;;4967849;28;20439;-67
2023/08/26 04:20:50;;;;;;;7.40;6.70;;;18.00;99.90;;;;;;4975592;28;20964;-67
2023/08/26 04:23:16;;;;;;;10.07;8.83;;;18.00;99.90;;;;;;4986303;28;20435;-67
2023/08/26 04:25:43;;;;;;;9.40;8.40;;;18.00;99.90;;;;;;4973597;28;20977;-66
2023/08/26 04:28:09;;;;;;;10.20;7.70;;;18.00;99.90;;;;;;4977861;28;20210;-66
2023/08/26 04:30:36;;;;;;;9.50;8.60;;;18.10;99.90;;;;;;4972986;28;20460;-66
2023/08/26 04:33:02;;;;;;;9.90;8.00;;;18.00;99.90;;;;;;4970212;28;20431;-67
2023/08/26 04:35:28;;;;;;;9.87;8.90;;;18.00;99.90;;;;;;4971711;28;20459;-66
2023/08/26 04:37:53;;;;;;;9.77;8.50;;;18.10;99.90;;;;;;4972908;28;20537;-66
2023/08/26 04:40:19;;;;;;;8.93;8.10;;;18.00;99.90;;;;;;4976894;28;20260;-67
2023/08/26 04:42:45;;;;;;;8.90;8.10;;;18.10;99.90;;;;;;4973515;28;20656;-67
2023/08/26 04:45:14;;;;;;;8.17;7.47;;;18.10;99.90;;;;;;4972443;28;20204;-66
2023/08/26 04:47:40;;;;;;;11.40;8.70;;;18.10;99.90;;;;;;4972007;28;20498;-66
2023/08/26 04:50:07;;;;;;;16.73;9.07;;;18.10;99.90;;;;;;4985014;28;20493;-66
2023/08/26 04:52:32;;;;;;;15.63;9.33;;;18.00;99.90;;;;;;4974808;28;20452;-67
2023/08/26 04:54:58;;;;;;;9.37;8.27;;;18.00;99.90;;;;;;4972020;28;20483;-67
2023/08/26 04:57:23;;;;;;;8.63;7.20;;;18.00;99.90;;;;;;4971528;28;20188;-66
2023/08/26 04:59:49;;;;;;;8.83;8.03;;;18.10;99.90;;;;;;4981977;28;20549;-66
2023/08/26 05:02:14;;;;;;;12.17;10.13;;;18.00;99.90;;;;;;4989129;28;20179;-67
2023/08/26 05:04:40;;;;;;;12.07;8.87;;;18.10;99.90;;;;;;4971512;28;20184;-67
2023/08/26 05:07:05;;;;;;;12.57;9.03;;;18.10;99.90;;;;;;4971100;28;20212;-66
2023/08/26 05:09:31;;;;;;;10.10;9.20;;;18.10;99.90;;;;;;4972290;28;20168;-67
2023/08/26 05:11:57;;;;;;;12.37;8.07;;;18.10;99.90;;;;;;4973130;28;20187;-66
2023/08/26 05:14:23;;;;;;;10.80;9.80;;;18.10;99.90;;;;;;4972509;28;20188;-67
2023/08/26 05:16:49;;;;;;;10.83;8.20;;;18.10;99.90;;;;;;4970248;28;21402;-67
2023/08/26 05:19:14;;;;;;;11.07;9.57;;;18.20;99.90;;;;;;4972575;28;20464;-68
2023/08/26 05:21:40;;;;;;;9.80;9.00;;;18.20;99.90;;;;;;4976090;28;20243;-67
2023/08/26 05:24:06;;;;;;;9.83;8.93;;;18.20;99.90;;;;;;4987298;28;20226;-67
2023/08/26 05:26:31;;;;;;;10.27;9.37;;;18.20;99.90;;;;;;4974493;28;20271;-67
2023/08/26 05:28:57;;;;;;;10.20;9.30;;;18.20;99.90;;;;;;4974749;28;20514;-68
2023/08/26 05:31:22;;;;;;;10.90;9.90;;;18.20;99.90;;;;;;4976977;28;20200;-67
2023/08/26 05:33:48;;;;;;;10.03;9.00;;;18.20;99.90;;;;;;4976888;28;20172;-68
2023/08/26 05:36:13;;;;;;;12.27;10.93;;;18.20;99.90;;;;;;4974972;28;20200;-67
2023/08/26 05:38:39;;;;;;;11.57;9.90;;;18.20;99.90;;;;;;4982633;28;20195;-67
2023/08/26 05:41:05;;;;;;;13.07;8.40;;;18.40;99.90;;;;;;4983014;28;20196;-68
2023/08/26 05:43:31;;;;;;;10.83;9.40;;;18.40;99.90;;;;;;4976012;28;20607;-67
2023/08/26 05:45:57;;;;;;;9.63;8.73;;;18.40;99.90;;;;;;4984465;28;20455;-68
2023/08/26 05:48:22;;;;;;;10.27;9.27;;;18.40;99.90;;;;;;4982350;28;20211;-67
2023/08/26 05:50:48;;;;;;;14.03;8.93;;;18.50;99.90;;;;;;4976911;28;20438;-67
2023/08/26 05:53:13;;;;;;;9.83;8.77;;;18.70;99.90;;;;;;4982882;28;20184;-68
2023/08/26 05:55:43;;;;;;;9.37;8.20;;;18.80;99.90;;;;;;4976898;28;20243;-68
2023/08/26 05:58:09;;;;;;;10.77;8.60;;;19.00;99.90;;;;;;4989259;28;20180;-68
2023/08/26 06:00:34;;;;;;;10.00;7.80;;;19.10;99.90;;;;;;4976868;28;20976;-68
2023/08/26 06:03:00;;;;;;;10.63;8.20;;;19.30;99.90;;;;;;4975548;28;20224;-67
2023/08/26 06:05:25;;;;;;;10.13;8.97;;;19.40;99.90;;;;;;4976104;28;20211;-67
2023/08/26 06:07:51;;;;;;;8.70;7.80;;;19.60;99.90;;;;;;4977903;28;20762;-70
2023/08/26 06:10:17;;;;;;;13.13;7.80;;;19.80;99.90;;;;;;4985058;28;20180;-68
2023/08/26 06:12:43;;;;;;;8.70;6.43;;;20.00;99.90;;;;;;4972495;28;20224;-68
2023/08/26 06:15:09;;;;;;;7.90;7.00;;;20.20;99.90;;;;;;4973363;28;20506;-68
2023/08/26 06:17:35;;;;;;;6.90;6.40;;;20.60;99.90;;;;;;4970726;28;20445;-68
2023/08/26 06:20:05;;;;;;;8.57;5.83;;;20.80;99.90;;;;;;4962346;28;20187;-68
2023/08/26 06:22:31;;;;;;;7.30;6.60;;;21.00;99.90;;;;;;4972893;28;20732;-68
2023/08/26 06:24:56;;;;;;;6.10;5.60;;;21.10;99.90;;;;;;4980828;28;20459;-68
2023/08/26 06:27:23;;;;;;;6.93;6.23;;;21.20;99.90;;;;;;4984008;28;20203;-68
2023/08/26 06:29:55;;;;;;;6.50;5.47;;;21.40;99.90;;;;;;4972998;28;20251;-68
2023/08/26 06:32:21;;;;;;;8.77;5.80;;;21.50;99.90;;;;;;4974968;28;20440;-68
2023/08/26 06:34:47;;;;;;;11.20;6.50;;;21.70;99.90;;;;;;4974881;28;20965;-68
2023/08/26 06:37:16;;;;;;;7.50;6.63;;;21.80;99.90;;;;;;4973009;28;20446;-68
2023/08/26 06:39:41;;;;;;;6.43;5.70;;;21.80;99.90;;;;;;4978969;28;20473;-67
2023/08/26 06:42:07;;;;;;;6.43;5.50;;;22.00;99.90;;;;;;4973284;28;20467;-67
2023/08/26 06:44:32;;;;;;;6.43;5.83;;;22.20;99.90;;;;;;4975529;28;20176;-67
2023/08/26 06:46:59;;;;;;;6.90;5.27;;;22.50;99.90;;;;;;4970900;28;20798;-68
2023/08/26 06:49:24;;;;;;;5.43;5.00;;;22.80;99.90;;;;;;4971548;28;20191;-67
2023/08/26 06:51:50;;;;;;;6.50;5.30;;;23.20;99.90;;;;;;4973728;28;20761;-67
2023/08/26 06:54:16;;;;;;;9.80;5.40;;;23.40;99.90;;;;;;4973660;28;20177;-67
2023/08/26 06:56:41;;;;;;;8.10;5.87;;;23.30;99.90;;;;;;4986304;28;20196;-67
2023/08/26 06:59:07;;;;;;;6.70;6.03;;;23.10;99.90;;;;;;4972715;28;20578;-67
2023/08/26 07:01:34;;;;;;;8.70;5.17;;;22.90;99.90;;;;;;4977512;28;20193;-67
2023/08/26 07:04:04;;;;;;;6.73;6.03;;;22.60;99.90;;;;;;4974837;28;20207;-67
2023/08/26 07:06:30;;;;;;;10.60;6.47;;;22.40;99.90;;;;;;4975093;28;20443;-67
2023/08/26 07:08:56;;;;;;;10.07;7.37;;;22.20;99.90;;;;;;4972788;28;21038;-67
2023/08/26 07:11:21;;;;;;;6.23;5.63;;;22.00;99.90;;;;;;4970801;28;20788;-67
2023/08/26 07:13:47;;;;;;;7.17;6.07;;;21.90;99.90;;;;;;4982341;28;20439;-67
2023/08/26 07:16:12;;;;;;;7.20;6.50;;;21.90;99.90;;;;;;4980364;28;20303;-68
2023/08/26 07:18:38;;;;;;;6.90;6.20;;;21.90;99.90;;;;;;4983214;28;20184;-67
2023/08/26 07:21:04;;;;;;;10.20;7.27;;;21.90;99.90;;;;;;4973515;28;20177;-67
2023/08/26 07:23:29;;;;;;;6.03;5.40;;;22.00;99.90;;;;;;4974704;28;20184;-67
2023/08/26 07:25:55;;;;;;;7.13;6.27;;;22.30;99.90;;;;;;4983109;28;20205;-67
2023/08/26 07:28:20;;;;;;;6.57;5.53;;;22.40;99.90;;;;;;4970808;28;20254;-67
2023/08/26 07:30:46;;;;;;;6.50;5.90;;;22.70;99.90;;;;;;4974432;28;20210;-68
2023/08/26 07:33:11;;;;;;;5.73;4.90;;;23.10;99.90;;;;;;4971779;28;20180;-68
2023/08/26 07:35:37;;;;;;;9.17;4.90;;;23.40;99.90;;;;;;4973708;28;20712;-68
2023/08/26 07:38:02;;;;;;;4.50;4.03;;;23.60;99.90;;;;;;4963327;28;20180;-67
2023/08/26 07:40:29;;;;;;;7.97;6.40;;;23.90;99.90;;;;;;4965239;28;20192;-68
2023/08/26 07:42:55;;;;;;;7.10;4.23;;;23.80;99.90;;;;;;4964006;28;20670;-70
2023/08/26 07:45:21;;;;;;;6.80;6.20;;;24.00;99.90;;;;;;4965281;28;20887;-69
2023/08/26 07:47:47;;;;;;;5.60;4.67;;;24.50;99.90;;;;;;4975215;28;20462;-70
2023/08/26 07:50:12;;;;;;;5.13;4.63;;;24.50;99.90;;;;;;4973867;28;20172;-70
2023/08/26 07:52:38;;;;;;;4.63;4.23;;;24.30;99.90;;;;;;4980157;28;20983;-69
2023/08/26 07:55:05;;;;;;;4.60;4.20;;;24.00;99.90;;;;;;4976626;28;20263;-70
2023/08/26 07:57:30;;;;;;;5.20;4.23;;;23.90;99.90;;;;;;4965377;28;20179;-71
2023/08/26 07:59:56;;;;;;;6.23;4.70;;;24.00;99.90;;;;;;4968951;28;20451;-71
2023/08/26 08:02:21;;;;;;;5.93;4.90;;;24.60;99.90;;;;;;4973879;28;20207;-72
2023/08/26 08:04:47;;;;;;;4.73;3.90;;;25.30;99.90;;;;;;4973885;28;20784;-71
2023/08/26 08:07:13;;;;;;;6.27;4.30;;;25.70;99.90;;;;;;4973886;28;20200;-72
2023/08/26 08:09:39;;;;;;;6.43;4.43;;;25.80;99.90;;;;;;4976240;28;20442;-72
2023/08/26 08:12:05;;;;;;;5.43;4.80;;;25.70;99.90;;;;;;4969828;28;20177;-72
2023/08/26 08:14:31;;;;;;;7.67;4.27;;;24.90;99.90;;;;;;4973878;28;20467;-71
2023/08/26 08:16:56;;;;;;;7.87;4.23;;;24.60;99.90;;;;;;4987364;28;20266;-70
2023/08/26 08:19:23;;;;;;;4.70;4.30;;;24.40;99.90;;;;;;4973858;28;20208;-71
2023/08/26 08:21:48;;;;;;;5.70;3.80;;;24.10;99.90;;;;;;4969552;28;20681;-71
2023/08/26 08:24:14;;;;;;;5.97;4.90;;;24.00;99.90;;;;;;4982324;28;20424;-70
2023/08/26 08:26:43;;;;;;;6.10;4.10;;;24.00;99.90;;;;;;4973443;28;20221;-71
2023/08/26 08:29:12;;;;;;;5.17;4.30;;;24.00;99.90;;;;;;4966635;28;20251;-71
2023/08/26 08:31:37;;;;;;;9.57;5.60;;;24.30;99.90;;;;;;4970868;28;20444;-72
2023/08/26 08:34:03;;;;;;;5.47;4.10;;;24.40;99.90;;;;;;4976835;28;20427;-71
2023/08/26 08:36:29;;;;;;;6.50;4.70;;;24.50;99.90;;;;;;4978499;28;20202;-72
2023/08/26 08:38:56;;;;;;;5.43;4.57;;;24.50;99.90;;;;;;4967434;28;20447;-72
2023/08/26 08:41:22;;;;;;;6.30;4.80;;;24.50;99.90;;;;;;4975186;28;20185;-72
2023/08/26 08:43:51;;;;;;;7.20;4.50;;;24.70;99.90;;;;;;4983582;28;20805;-72
2023/08/26 08:46:18;;;;;;;6.67;5.20;;;25.00;99.90;;;;;;4970545;28;20262;-72
2023/08/26 08:48:43;;;;;;;5.20;4.70;;;25.30;99.90;;;;;;4972195;28;20490;-69
2023/08/26 08:51:10;;;;;;;7.20;4.80;;;25.30;99.90;;;;;;4978101;28;20442;-69
2023/08/26 08:53:40;;;;;;;5.80;4.80;;;25.10;99.90;;;;;;4984415;28;20184;-68
2023/08/26 08:56:06;;;;;;;5.77;4.80;;;24.90;99.90;;;;;;4991682;28;20442;-69
2023/08/26 08:58:33;;;;;;;5.10;4.60;;;24.60;99.90;;;;;;4969436;28;20446;-68
2023/08/26 09:00:59;;;;;;;10.40;5.10;;;24.20;99.90;;;;;;4973052;28;20435;-69
2023/08/26 09:03:24;;;;;;;5.70;4.40;;;24.30;99.90;;;;;;4970665;28;20431;-71
2023/08/26 09:05:53;;;;;;;5.70;5.17;;;24.30;99.90;;;;;;4972154;28;20513;-73
2023/08/26 09:08:20;;;;;;;10.27;7.63;;;24.30;99.90;;;;;;4970076;28;20299;-73
2023/08/26 09:10:47;;;;;;;6.47;5.87;;;24.20;99.90;;;;;;4970031;28;20518;-74
2023/08/26 09:13:12;;;;;;;6.30;5.10;;;24.20;99.90;;;;;;4968889;28;20448;-68
2023/08/26 09:15:39;;;;;;;10.67;4.50;;;24.50;99.90;;;;;;4970803;28;20455;-67
2023/08/26 09:18:11;;;;;;;6.47;4.00;;;24.60;99.90;;;;;;4968330;28;20208;-68
2023/08/26 09:20:40;;;;;;;6.23;4.60;;;24.50;99.90;;;;;;4970200;28;20454;-67
2023/08/26 09:23:07;;;;;;;5.70;4.90;;;24.50;99.90;;;;;;4969001;28;20447;-70
2023/08/26 09:25:34;;;;;;;5.50;5.10;;;24.50;99.90;;;;;;4969734;28;20510;-70
2023/08/26 09:28:00;;;;;;;6.10;4.47;;;24.50;99.90;;;;;;4966555;28;20476;-70
2023/08/26 09:30:26;;;;;;;5.30;4.83;;;24.40;99.90;;;;;;4969661;28;20435;-69
2023/08/26 09:32:53;;;;;;;6.47;4.80;;;24.20;99.90;;;;;;4970069;28;20555;-73
2023/08/26 09:35:19;;;;;;;7.27;5.10;;;24.10;99.90;;;;;;4968843;28;20207;-69
2023/08/26 09:37:47;;;;;;;11.10;7.80;;;24.00;99.90;;;;;;4972949;28;20479;-70
2023/08/26 09:40:16;;;;;;;9.80;8.80;;;24.20;99.90;;;;;;4969933;28;20489;-70
2023/08/26 09:42:42;;;;;;;7.10;5.30;;;24.30;99.90;;;;;;4968850;28;20444;-70
2023/08/26 09:45:10;;;;;;;11.93;5.43;;;24.30;99.90;;;;;;4969143;28;20458;-69
2023/08/26 09:47:37;;;;;;;6.00;5.50;;;24.20;99.90;;;;;;4970809;28;20463;-70
2023/08/26 09:50:03;;;;;;;7.73;5.90;;;24.00;99.90;;;;;;4970875;28;20493;-70
2023/08/26 09:52:29;;;;;;;4.87;4.40;;;24.00;99.90;;;;;;4972702;28;20424;-71
2023/08/26 09:54:56;;;;;;;7.83;6.57;;;23.80;99.90;;;;;;4971303;28;20466;-70
2023/08/26 09:57:22;;;;;;;9.70;5.13;;;23.80;99.90;;;;;;4965762;28;20176;-69
2023/08/26 09:59:48;;;;;;;5.00;4.37;;;23.80;99.90;;;;;;4966927;28;20583;-70
2023/08/26 10:02:22;;;;;;;11.23;6.00;;;23.90;99.90;;;;;;4972904;28;20956;-70
2023/08/26 10:04:56;;;;;;;5.70;5.17;;;24.20;99.90;;;;;;4963109;28;20271;-70
2023/08/26 10:07:23;;;;;;;8.90;5.83;;;24.50;99.90;;;;;;4969384;28;20470;-71
2023/08/26 10:09:59;;;;;;;6.57;5.37;;;24.50;99.90;;;;;;4969443;28;20435;-71
2023/08/26 10:12:35;;;;;;;6.90;6.20;;;24.20;99.90;;;;;;4971662;28;20462;-71
2023/08/26 10:15:02;;;;;;;7.50;6.60;;;23.70;99.90;;;;;;4974101;28;20451;-71
2023/08/26 10:17:30;;;;;;;7.43;5.47;;;23.40;99.90;;;;;;4974898;28;20786;-71
2023/08/26 10:19:57;;;;;;;6.67;5.70;;;23.10;99.90;;;;;;4974310;28;20956;-70
2023/08/26 10:22:24;;;;;;;14.13;6.37;;;22.90;99.90;;;;;;4974407;28;20435;-71
2023/08/26 10:24:50;;;;;;;8.83;5.70;;;22.70;99.90;;;;;;4973246;28;20438;-70
2023/08/26 10:27:17;;;;;;;5.67;5.17;;;22.60;99.90;;;;;;4965644;28;20586;-72
2023/08/26 10:29:43;;;;;;;5.80;5.33;;;22.70;99.90;;;;;;4969867;28;20180;-72
2023/08/26 10:32:16;;;;;;;8.07;5.30;;;22.80;99.90;;;;;;4969768;28;20785;-71
2023/08/26 10:34:55;;;;;;;9.10;5.40;;;22.90;99.90;;;;;;4974092;28;20470;-71
2023/08/26 10:37:43;;;;;;;6.37;5.77;;;23.00;99.90;;;;;;4974650;28;20443;-71
2023/08/26 10:40:12;;;;;;;7.10;5.13;;;22.90;99.90;;;;;;4959912;28;20447;-71
2023/08/26 10:42:39;;;;;;;11.60;6.43;;;22.70;99.90;;;;;;4974614;28;20444;-71
2023/08/26 10:45:14;;;;;;;7.80;5.90;;;22.50;99.90;;;;;;4974185;28;20490;-69
2023/08/26 10:47:50;;;;;;;7.43;5.87;;;22.40;99.90;;;;;;4973001;28;20466;-71
2023/08/26 10:50:22;;;;;;;8.60;5.87;;;22.30;99.90;;;;;;4963958;28;20507;-70
2023/08/26 10:52:53;;;;;;;6.40;5.77;;;22.10;99.90;;;;;;4968733;28;20438;-70
2023/08/26 10:55:24;;;;;;;8.73;6.13;;;22.10;99.90;;;;;;4972014;28;20961;-70
2023/08/26 10:58:13;;;;;;;6.90;5.97;;;22.00;99.90;;;;;;4974229;28;20961;-68
2023/08/26 11:00:41;;;;;;;9.60;7.00;;;21.90;99.90;;;;;;4970596;28;20454;-67
2023/08/26 11:03:10;;;;;;;6.77;6.17;;;21.90;99.90;;;;;;4974091;28;20533;-67
2023/08/26 11:05:41;;;;;;;8.30;5.87;;;22.00;99.90;;;;;;4974155;28;20455;-67
2023/08/26 11:08:07;;;;;;;6.77;6.07;;;22.20;99.90;;;;;;4974125;28;20459;-67
2023/08/26 11:10:40;;;;;;;7.17;6.47;;;22.30;99.90;;;;;;4973931;28;20884;-67
2023/08/26 11:13:07;;;;;;;6.80;5.30;;;22.60;99.90;;;;;;4974232;28;20618;-68
2023/08/26 11:15:38;;;;;;;7.90;5.63;;;22.90;99.90;;;;;;4975435;28;20452;-67
2023/08/26 11:18:05;;;;;;;6.23;5.80;;;23.10;99.90;;;;;;4974357;28;20450;-67
2023/08/26 11:20:31;;;;;;;5.37;4.83;;;23.50;99.90;;;;;;4974588;28;20420;-68
2023/08/26 11:22:57;;;;;;;5.50;4.60;;;23.80;99.90;;;;;;4973337;28;20494;-67
2023/08/26 11:25:23;;;;;;;6.23;5.63;;;24.00;99.90;;;;;;4974293;28;20471;-67
2023/08/26 11:27:49;;;;;;;5.90;4.73;;;24.00;99.90;;;;;;4973914;28;20686;-68
2023/08/26 11:30:15;;;;;;;6.40;5.20;;;23.60;99.90;;;;;;4972223;28;20442;-68
2023/08/26 11:32:41;;;;;;;7.73;5.30;;;23.40;99.90;;;;;;4971929;28;20182;-68
2023/08/26 11:35:10;;;;;;;7.60;6.63;;;23.10;99.90;;;;;;4974528;28;20534;-67
2023/08/26 11:37:41;;;;;;;9.53;6.37;;;22.80;99.90;;;;;;4974936;28;20435;-68
2023/08/26 11:40:08;;;;;;;7.13;5.67;;;22.70;99.90;;;;;;4973034;28;20450;-67
2023/08/26 11:42:33;;;;;;;11.63;6.33;;;22.70;99.90;;;;;;4973700;28;20443;-67
2023/08/26 11:44:59;;;;;;;6.60;6.00;;;22.80;99.90;;;;;;4974462;28;20452;-67
2023/08/26 11:47:25;;;;;;;5.50;5.00;;;22.60;99.90;;;;;;4971706;28;20208;-67
2023/08/26 11:49:55;;;;;;;7.53;6.10;;;22.50;99.90;;;;;;4971647;28;20209;-67
2023/08/26 11:52:22;;;;;;;9.33;7.00;;;22.40;99.90;;;;;;4972178;28;20176;-67
2023/08/26 11:54:52;;;;;;;9.87;6.07;;;22.40;99.90;;;;;;4974156;28;20423;-66
2023/08/26 11:57:22;;;;;;;8.80;5.63;;;22.40;99.90;;;;;;4974519;28;20463;-67
2023/08/26 11:59:48;;;;;;;9.63;6.30;;;22.30;99.90;;;;;;4971687;28;20515;-67
2023/08/26 12:02:24;;;;;;;8.73;6.17;;;22.20;99.90;;;;;;4973540;28;20925;-67
2023/08/26 12:04:59;;;;;;;9.70;6.73;;;22.00;99.90;;;;;;4973786;28;20176;-67
2023/08/26 12:07:25;;;;;;;7.27;6.27;;;21.80;99.90;;;;;;4972764;28;20687;-67
2023/08/26 12:09:52;;;;;;;9.03;8.13;;;21.80;99.90;;;;;;4971602;28;20455;-67
2023/08/26 12:12:21;;;;;;;7.03;6.43;;;21.80;99.90;;;;;;4973129;28;20443;-67
2023/08/26 12:14:47;;;;;;;8.47;7.30;;;21.70;99.90;;;;;;4972638;28;20444;-66
2023/08/26 12:17:14;;;;;;;7.80;7.00;;;21.60;99.90;;;;;;4971469;28;20446;-67
2023/08/26 12:19:43;;;;;;;8.10;7.50;;;21.60;99.90;;;;;;4973102;28;20420;-66
2023/08/26 12:22:10;;;;;;;8.77;8.07;;;21.50;99.90;;;;;;4974047;28;20826;-67
2023/08/26 12:24:39;;;;;;;9.30;8.37;;;21.50;99.90;;;;;;4973276;28;20477;-66
2023/08/26 12:27:10;;;;;;;8.93;8.03;;;21.50;99.90;;;;;;4972559;28;20499;-67
2023/08/26 12:29:36;;;;;;;11.00;9.90;;;21.40;99.90;;;;;;4971221;28;20446;-67
2023/08/26 12:32:02;;;;;;;8.97;7.57;;;21.30;99.90;;;;;;4972565;28;20446;-67
2023/08/26 12:34:28;;;;;;;10.50;9.50;;;21.20;99.90;;;;;;4970993;28;20431;-66
2023/08/26 12:36:54;;;;;;;8.77;8.17;;;21.10;99.90;;;;;;4969619;28;20753;-67
2023/08/26 12:39:20;;;;;;;9.50;8.70;;;20.90;99.90;;;;;;4972868;28;20272;-66
2023/08/26 12:41:45;;;;;;;8.93;8.13;;;20.90;99.90;;;;;;4973540;28;20525;-67